Reinbeck, IA (50669)

9:39 PM CDT on August 23, 2016 (GMT -0500)
Hicks | | Change Station

Elev 958 ft 42.36 °N, 92.52 °W | Updated 4 minutes ago

Overcast
Overcast
73.9 °F
Feels Like 71 °F
N
10.0
Wind Variable Wind from SSE
Gusts 12.0 mph

Today
High -- | Low -- °F
--% Chance of Precip.
Yesterday
High -- | Low -- °F
Precip. -- in
Pressure 29.91 in
Visibility 10.0 miles
Clouds Mostly Cloudy 1400 ft
Overcast 2200 ft
Heat Index 71 °F
Dew Point 72 °F
Humidity 93%
Rainfall 0.00 in
Snow Depth Not available.
6:26 AM 7:58 PM
Waning Gibbous, 62% visible
SPECI KALO 240211Z AUTO 15013KT 10SM BKN014 OVC022 23/21 A2991 RMK AO2 LTG DSNT N T02330206
Pressure 29.91 in
Visibility 10.0 miles
Clouds Mostly Cloudy 1400 ft
Overcast 2200 ft
Heat Index 71 °F
Dew Point 72 °F
Humidity 93%
Rainfall 0.00 in
Snow Depth Not available.
6:26 AM 7:58 PM
Waning Gibbous, 62% visible
SPECI KALO 240211Z AUTO 15013KT 10SM BKN014 OVC022 23/21 A2991 RMK AO2 LTG DSNT N T02330206

10-Day Weather Forecast

Almanac

Astronomy

Aug. 23, 2016 Rise Set
Actual Time
Civil Twilight
Nautical Twilight
Astronomical Twilight
Moon
Length of Visible Light
Length of Day
Tomorrow will be .
, % of the Moon is Illuminated

Today's Extremes

State Highs State Lows

Community

WunderPhotos

Upload Photos

1,934,528 photos uploaded!

WunderBlog® & News

Nearby

Air Quality

  Air Quality AQ Index Pollutant
Not available.

Snow Depth

Station Depth Elevation

Earthquake Activity

City Distance Mag. Time & Date
Minimum magnitude displayed is 2.5.

Coastal Water Temperatures

Place Temperature

Stations

Nearby Weather Stations

Station Location Temp. Windchill Dew Point Humidity Wind Precip. Elev Updated Type
                   

Watches & Warnings

There are currently no watches in effect.